Time;durP1;ratioP1;P1;durP2;ratioP2;P2;SDS_P1;SDS_P2;PMS_P1;PMS_P2;Temp;Humidity;BMP_temperature;BMP_pressure;BME280_temperature;BME280_humidity;BME280_pressure;Samples;Min_cycle;Max_cycle;Signal;HPM_P1;HPM_P2
2021/09/09 00:00:31;;;;;;;16.05;10.68;;;16.60;99.90;;;;;;5039483;28;20080;-64
2021/09/09 00:02:56;;;;;;;15.93;10.82;;;16.60;99.90;;;;;;5041152;28;20059;-64
2021/09/09 00:05:22;;;;;;;12.80;10.20;;;16.60;99.90;;;;;;5034083;28;20079;-64
2021/09/09 00:07:48;;;;;;;17.83;10.32;;;16.60;99.90;;;;;;5042281;28;20037;-64
2021/09/09 00:10:14;;;;;;;12.43;10.38;;;16.50;99.90;;;;;;5041313;28;20053;-64
2021/09/09 00:12:40;;;;;;;15.23;11.38;;;16.50;99.90;;;;;;5034444;28;20080;-64
2021/09/09 00:15:06;;;;;;;15.13;11.20;;;16.50;99.90;;;;;;5037964;28;20048;-64
2021/09/09 00:17:32;;;;;;;15.13;11.25;;;16.50;99.90;;;;;;5036259;28;20085;-64
2021/09/09 00:19:58;;;;;;;15.00;10.40;;;16.50;99.90;;;;;;5040812;28;20125;-64
2021/09/09 00:22:24;;;;;;;13.88;10.57;;;16.50;99.90;;;;;;5037868;28;20061;-64
2021/09/09 00:24:50;;;;;;;13.98;10.77;;;16.50;99.90;;;;;;5039399;28;20101;-64
2021/09/09 00:27:16;;;;;;;16.77;11.27;;;16.40;99.90;;;;;;5039586;28;20079;-64
2021/09/09 00:29:41;;;;;;;15.07;11.20;;;16.40;99.90;;;;;;5044880;28;20041;-64
2021/09/09 00:32:08;;;;;;;13.70;10.57;;;16.50;99.90;;;;;;5044563;28;20042;-64
2021/09/09 00:34:33;;;;;;;13.38;11.15;;;16.40;99.90;;;;;;5045029;28;20041;-64
2021/09/09 00:36:59;;;;;;;14.43;10.50;;;16.40;99.90;;;;;;5044495;28;20049;-64
2021/09/09 00:39:25;;;;;;;12.40;10.10;;;16.40;99.90;;;;;;5045289;28;20095;-64
2021/09/09 00:41:52;;;;;;;15.57;11.20;;;16.40;99.90;;;;;;5043042;28;20053;-63
2021/09/09 00:44:26;;;;;;;14.88;11.05;;;16.30;99.90;;;;;;5044874;28;20072;-63
2021/09/09 00:47:09;;;;;;;15.95;10.98;;;16.30;99.90;;;;;;5045262;28;20038;-65
2021/09/09 00:49:38;;;;;;;13.43;10.63;;;16.30;99.90;;;;;;5032099;28;20045;-63
2021/09/09 00:52:05;;;;;;;15.68;12.10;;;16.30;99.90;;;;;;5038371;28;20061;-64
2021/09/09 00:54:30;;;;;;;13.38;11.30;;;16.30;99.90;;;;;;5045017;28;20064;-63
2021/09/09 00:56:56;;;;;;;17.00;11.55;;;16.30;99.90;;;;;;5033842;28;20042;-65
2021/09/09 00:59:23;;;;;;;13.32;11.38;;;16.20;99.90;;;;;;5045071;28;20034;-64
2021/09/09 01:01:48;;;;;;;13.50;11.05;;;16.20;99.90;;;;;;5032375;28;20045;-64
2021/09/09 01:04:15;;;;;;;14.40;11.77;;;16.20;99.90;;;;;;5043557;28;20072;-63
2021/09/09 01:06:41;;;;;;;16.05;12.13;;;16.10;99.90;;;;;;5043581;28;20044;-63
2021/09/09 01:09:07;;;;;;;18.63;12.00;;;16.10;99.90;;;;;;5040884;28;20112;-63
2021/09/09 01:11:33;;;;;;;17.73;12.10;;;16.10;99.90;;;;;;5043987;28;20048;-63
2021/09/09 01:14:10;;;;;;;16.13;12.52;;;16.10;99.90;;;;;;5045769;28;20067;-63
2021/09/09 01:16:38;;;;;;;16.95;12.10;;;16.00;99.90;;;;;;5044401;28;20041;-65
2021/09/09 01:19:05;;;;;;;17.60;13.05;;;16.00;99.90;;;;;;5039525;28;20051;-63
2021/09/09 01:21:32;;;;;;;23.45;14.55;;;15.90;99.90;;;;;;5025817;28;20052;-64
2021/09/09 01:23:59;;;;;;;15.95;12.88;;;15.90;99.90;;;;;;5044822;28;20072;-65
2021/09/09 01:26:27;;;;;;;18.95;13.75;;;15.90;99.90;;;;;;5043035;28;20049;-65
2021/09/09 01:28:59;;;;;;;20.40;13.18;;;15.90;99.90;;;;;;5044556;28;20048;-65
2021/09/09 01:31:25;;;;;;;18.10;13.35;;;15.90;99.90;;;;;;5037499;28;20049;-64
2021/09/09 01:33:57;;;;;;;15.27;12.63;;;15.90;99.90;;;;;;5057938;28;20056;-64
2021/09/09 01:36:23;;;;;;;16.23;12.13;;;15.90;99.90;;;;;;5030239;28;20060;-63
2021/09/09 01:38:49;;;;;;;15.95;12.57;;;15.80;99.90;;;;;;5036733;28;20046;-63
2021/09/09 01:41:15;;;;;;;16.92;13.02;;;15.80;99.90;;;;;;5042754;28;20048;-64
2021/09/09 01:43:40;;;;;;;21.17;13.70;;;15.80;99.90;;;;;;5036379;28;20048;-63
2021/09/09 01:46:06;;;;;;;17.73;13.77;;;15.80;99.90;;;;;;5038393;28;20046;-64
2021/09/09 01:48:32;;;;;;;15.98;12.35;;;15.70;99.90;;;;;;5038262;28;20041;-63
2021/09/09 01:50:59;;;;;;;14.35;11.88;;;15.70;99.90;;;;;;5037050;28;20050;-63
2021/09/09 01:53:24;;;;;;;18.20;11.67;;;15.70;99.90;;;;;;5032093;28;20042;-63
2021/09/09 01:55:50;;;;;;;17.05;12.07;;;15.70;99.90;;;;;;5034739;28;20329;-63
2021/09/09 01:58:16;;;;;;;21.13;12.18;;;15.70;99.90;;;;;;5030111;28;20049;-64
2021/09/09 02:00:41;;;;;;;17.58;12.30;;;15.70;99.90;;;;;;5026954;28;20042;-63
2021/09/09 02:03:07;;;;;;;16.30;12.07;;;15.60;99.90;;;;;;5034671;28;20037;-64
2021/09/09 02:05:33;;;;;;;14.85;11.50;;;15.60;99.90;;;;;;5041614;28;20574;-64
2021/09/09 02:07:58;;;;;;;17.35;12.65;;;15.60;99.90;;;;;;5042122;28;20515;-64
2021/09/09 02:10:24;;;;;;;19.05;12.20;;;15.50;99.90;;;;;;5033793;28;20055;-65
2021/09/09 02:12:50;;;;;;;15.10;12.25;;;15.50;99.90;;;;;;5040184;28;20164;-64
2021/09/09 02:15:17;;;;;;;16.90;12.10;;;15.50;99.90;;;;;;5033989;28;20064;-64
2021/09/09 02:17:43;;;;;;;18.73;12.18;;;15.50;99.90;;;;;;5046167;28;20045;-64
2021/09/09 02:20:09;;;;;;;15.85;12.20;;;15.50;99.90;;;;;;5037840;28;20060;-64
2021/09/09 02:22:35;;;;;;;22.90;12.82;;;15.50;99.90;;;;;;5045746;28;20037;-64
2021/09/09 02:25:01;;;;;;;18.23;12.02;;;15.40;99.90;;;;;;5037439;28;20041;-64
2021/09/09 02:27:27;;;;;;;22.85;13.80;;;15.40;99.90;;;;;;5045304;28;20041;-64
2021/09/09 02:29:53;;;;;;;16.92;12.98;;;15.40;99.90;;;;;;5037240;28;20048;-64
2021/09/09 02:32:19;;;;;;;16.65;12.68;;;15.40;99.90;;;;;;5039001;28;20145;-63
2021/09/09 02:34:45;;;;;;;18.77;13.35;;;15.40;99.90;;;;;;5038948;28;20056;-64
2021/09/09 02:37:10;;;;;;;19.23;13.60;;;15.20;99.90;;;;;;5043625;28;20068;-64
2021/09/09 02:39:40;;;;;;;20.52;13.38;;;15.30;99.90;;;;;;5040801;28;20046;-64
2021/09/09 02:42:06;;;;;;;16.17;12.43;;;15.30;99.90;;;;;;5047052;28;20082;-64
2021/09/09 02:44:32;;;;;;;18.83;12.88;;;15.20;99.90;;;;;;5041221;28;20405;-64
2021/09/09 02:46:57;;;;;;;17.30;13.30;;;15.20;99.90;;;;;;5042109;28;20038;-64
2021/09/09 02:49:23;;;;;;;18.70;13.15;;;15.20;99.90;;;;;;5042417;28;20053;-64
2021/09/09 02:51:49;;;;;;;19.00;13.50;;;15.20;99.90;;;;;;5040193;28;20154;-64
2021/09/09 02:54:15;;;;;;;20.30;13.63;;;15.10;99.90;;;;;;5044004;28;20523;-64
2021/09/09 02:56:40;;;;;;;19.48;13.52;;;15.10;99.90;;;;;;5045404;28;20056;-64
2021/09/09 02:59:06;;;;;;;20.00;13.10;;;15.10;99.90;;;;;;5046126;28;20045;-64
2021/09/09 03:01:32;;;;;;;22.27;14.52;;;15.00;99.90;;;;;;5043337;28;20125;-64
2021/09/09 03:03:58;;;;;;;18.33;14.43;;;15.00;99.90;;;;;;5042262;28;20053;-64
2021/09/09 03:06:23;;;;;;;19.73;13.90;;;15.00;99.90;;;;;;5042977;28;20042;-64
2021/09/09 03:08:49;;;;;;;17.35;13.20;;;14.90;99.90;;;;;;5041692;28;20041;-63
2021/09/09 03:11:14;;;;;;;17.88;13.88;;;14.90;99.90;;;;;;5042657;28;20192;-64
2021/09/09 03:13:40;;;;;;;22.27;14.10;;;14.90;99.90;;;;;;5040865;28;20066;-64
2021/09/09 03:16:06;;;;;;;21.70;14.52;;;14.80;99.90;;;;;;5044075;28;20081;-64
2021/09/09 03:18:31;;;;;;;18.92;14.23;;;14.80;99.90;;;;;;5042465;28;20044;-64
2021/09/09 03:20:58;;;;;;;17.95;14.02;;;14.70;99.90;;;;;;5043145;28;20085;-64
2021/09/09 03:23:24;;;;;;;21.50;13.53;;;14.70;99.90;;;;;;5040736;28;20042;-64
2021/09/09 03:25:50;;;;;;;23.05;15.35;;;14.70;99.90;;;;;;5044616;28;20053;-64
2021/09/09 03:28:15;;;;;;;27.27;15.45;;;14.60;99.90;;;;;;5040152;28;20056;-64
2021/09/09 03:30:41;;;;;;;23.90;14.95;;;14.60;99.90;;;;;;5044902;28;20038;-64
2021/09/09 03:33:07;;;;;;;22.42;15.05;;;14.60;99.90;;;;;;5039935;28;20041;-64
2021/09/09 03:35:32;;;;;;;19.23;14.95;;;14.50;99.90;;;;;;5045190;28;20519;-64
2021/09/09 03:37:58;;;;;;;21.63;15.05;;;14.50;99.90;;;;;;5040529;28;20046;-64
2021/09/09 03:40:25;;;;;;;21.33;15.73;;;14.50;99.90;;;;;;5040849;28;20049;-64
2021/09/09 03:42:50;;;;;;;19.25;14.93;;;14.50;99.90;;;;;;5036068;28;20050;-64
2021/09/09 03:45:16;;;;;;;23.15;16.02;;;14.50;99.90;;;;;;5044459;28;20042;-64
2021/09/09 03:47:42;;;;;;;28.45;15.35;;;14.50;99.90;;;;;;5043769;28;20168;-65
2021/09/09 03:50:08;;;;;;;20.33;15.77;;;14.50;99.90;;;;;;5042524;28;20033;-64
2021/09/09 03:52:34;;;;;;;21.58;16.10;;;14.40;99.90;;;;;;5044222;28;20133;-65
2021/09/09 03:54:59;;;;;;;25.23;16.02;;;14.50;99.90;;;;;;5041205;28;20049;-64
2021/09/09 03:57:25;;;;;;;24.25;16.50;;;14.50;99.90;;;;;;5045884;28;20053;-64
2021/09/09 03:59:51;;;;;;;25.48;16.92;;;14.40;99.90;;;;;;5039560;28;20041;-64
2021/09/09 04:02:17;;;;;;;24.20;16.88;;;14.40;99.90;;;;;;5043898;28;20045;-64
2021/09/09 04:04:43;;;;;;;21.92;16.00;;;14.40;99.90;;;;;;5035012;28;20113;-64
2021/09/09 04:07:09;;;;;;;23.52;17.25;;;14.30;99.90;;;;;;5039169;28;20045;-65
2021/09/09 04:09:37;;;;;;;20.92;16.48;;;14.30;99.90;;;;;;5043221;28;20072;-64
2021/09/09 04:12:06;;;;;;;22.88;17.70;;;14.30;99.90;;;;;;5041296;28;20102;-64
2021/09/09 04:14:32;;;;;;;26.65;17.20;;;14.30;99.90;;;;;;5074121;28;20075;-65
2021/09/09 04:16:58;;;;;;;23.23;17.02;;;14.30;99.90;;;;;;5042299;28;20044;-64
2021/09/09 04:19:24;;;;;;;21.23;16.02;;;14.20;99.90;;;;;;5034062;28;20038;-64
2021/09/09 04:21:50;;;;;;;26.33;17.77;;;14.20;99.90;;;;;;5038584;28;20053;-64
2021/09/09 04:24:16;;;;;;;23.92;17.33;;;14.20;99.90;;;;;;5038164;28;20045;-65
2021/09/09 04:26:42;;;;;;;24.52;17.70;;;14.20;99.90;;;;;;5028582;28;20049;-65
2021/09/09 04:29:08;;;;;;;25.33;18.88;;;14.10;99.90;;;;;;5027156;28;20494;-66
2021/09/09 04:31:34;;;;;;;26.35;17.30;;;14.00;99.90;;;;;;5036697;28;20040;-65
2021/09/09 04:34:00;;;;;;;25.52;18.52;;;14.10;99.90;;;;;;5043735;28;20095;-65
2021/09/09 04:36:26;;;;;;;25.08;18.88;;;14.00;99.90;;;;;;5039172;28;20049;-65
2021/09/09 04:38:52;;;;;;;26.90;19.48;;;14.00;99.90;;;;;;5038437;28;20110;-65
2021/09/09 04:41:18;;;;;;;26.20;18.77;;;14.00;99.90;;;;;;5036047;28;20087;-65
2021/09/09 04:43:44;;;;;;;23.45;18.42;;;14.00;99.90;;;;;;5043514;28;20041;-64
2021/09/09 04:46:09;;;;;;;23.05;17.63;;;14.00;99.90;;;;;;5042570;28;20052;-64
2021/09/09 04:48:36;;;;;;;23.00;18.10;;;14.00;99.90;;;;;;5039700;28;20048;-64
2021/09/09 04:51:01;;;;;;;24.60;18.42;;;13.90;99.90;;;;;;5039968;28;20049;-64
2021/09/09 04:53:27;;;;;;;22.83;18.60;;;13.90;99.90;;;;;;5039351;28;20041;-64
2021/09/09 04:55:54;;;;;;;26.15;19.00;;;13.90;99.90;;;;;;5036990;28;20034;-65
2021/09/09 04:58:20;;;;;;;24.90;19.67;;;13.90;99.90;;;;;;5038108;28;20041;-64
2021/09/09 05:00:45;;;;;;;28.08;20.33;;;13.90;99.90;;;;;;5037436;28;20329;-64
2021/09/09 05:03:11;;;;;;;28.50;19.77;;;13.90;99.90;;;;;;5037211;28;20049;-65
2021/09/09 05:05:37;;;;;;;25.70;18.23;;;13.90;99.90;;;;;;5040446;28;20105;-64
2021/09/09 05:08:02;;;;;;;22.33;17.63;;;13.90;99.90;;;;;;5033620;28;20077;-64
2021/09/09 05:10:28;;;;;;;29.08;19.35;;;13.90;99.90;;;;;;5041853;28;20037;-64
2021/09/09 05:12:54;;;;;;;30.08;19.75;;;13.90;99.90;;;;;;5033124;28;20037;-64
2021/09/09 05:15:19;;;;;;;28.52;20.23;;;13.90;99.90;;;;;;5031987;28;20045;-64
2021/09/09 05:17:45;;;;;;;28.00;19.15;;;13.90;99.90;;;;;;5040778;28;20087;-64
2021/09/09 05:20:11;;;;;;;25.17;18.52;;;13.90;99.90;;;;;;5040339;28;20041;-64
2021/09/09 05:22:37;;;;;;;28.88;18.50;;;14.00;99.90;;;;;;5033839;28;20045;-64
2021/09/09 05:25:03;;;;;;;29.55;19.63;;;14.00;99.90;;;;;;5039714;28;20049;-64
2021/09/09 05:27:29;;;;;;;25.88;19.50;;;14.00;99.90;;;;;;5035484;28;20042;-64
2021/09/09 05:29:55;;;;;;;26.77;20.98;;;14.00;99.90;;;;;;5039049;28;20045;-64
2021/09/09 05:32:21;;;;;;;28.52;19.42;;;14.10;99.90;;;;;;5037195;28;20137;-64
2021/09/09 05:34:46;;;;;;;29.63;19.17;;;14.10;99.90;;;;;;5036554;28;20084;-64
2021/09/09 05:37:12;;;;;;;26.63;17.88;;;14.10;99.90;;;;;;5039169;28;20133;-64
2021/09/09 05:39:38;;;;;;;28.15;18.30;;;14.10;99.90;;;;;;5033933;28;20038;-64
2021/09/09 05:42:04;;;;;;;27.45;20.35;;;14.20;99.90;;;;;;5040558;28;20050;-64
2021/09/09 05:44:30;;;;;;;25.67;19.40;;;14.20;99.90;;;;;;5032674;28;20083;-64
2021/09/09 05:46:56;;;;;;;26.00;18.75;;;14.20;99.90;;;;;;5040130;28;20477;-64
2021/09/09 05:49:21;;;;;;;26.65;19.08;;;14.30;99.90;;;;;;5033131;28;20056;-64
2021/09/09 05:51:47;;;;;;;31.13;19.52;;;14.40;99.90;;;;;;5039590;28;20042;-64
2021/09/09 05:54:13;;;;;;;29.67;19.02;;;14.40;99.90;;;;;;5032716;28;20052;-64
2021/09/09 05:56:39;;;;;;;29.25;20.63;;;14.50;99.90;;;;;;5039173;28;20139;-64
2021/09/09 05:59:05;;;;;;;32.88;17.95;;;14.50;99.90;;;;;;5032214;28;20045;-64
2021/09/09 06:01:31;;;;;;;27.45;19.88;;;14.70;99.90;;;;;;5039164;28;20045;-65
2021/09/09 06:03:57;;;;;;;28.67;19.40;;;14.70;99.90;;;;;;5031644;28;20049;-64
2021/09/09 06:06:25;;;;;;;28.88;18.50;;;14.70;99.90;;;;;;5034638;28;20057;-64
2021/09/09 06:08:51;;;;;;;25.73;16.98;;;14.70;99.90;;;;;;5042040;28;20073;-64
2021/09/09 06:11:17;;;;;;;33.50;19.48;;;14.70;99.90;;;;;;5034536;28;20049;-64
2021/09/09 06:13:43;;;;;;;31.83;20.15;;;15.00;99.90;;;;;;5041715;28;20052;-65
2021/09/09 06:16:08;;;;;;;39.58;19.17;;;14.90;99.90;;;;;;5033985;28;20081;-64
2021/09/09 06:18:35;;;;;;;27.85;19.40;;;15.00;99.90;;;;;;5041784;28;20040;-66
2021/09/09 06:21:01;;;;;;;30.70;18.02;;;15.10;99.90;;;;;;5033454;28;20054;-64
2021/09/09 06:23:27;;;;;;;25.17;20.00;;;15.10;99.90;;;;;;5041479;28;20121;-66
2021/09/09 06:25:53;;;;;;;33.55;18.48;;;15.20;99.90;;;;;;5035411;28;20042;-65
2021/09/09 06:28:19;;;;;;;27.92;18.83;;;15.30;99.90;;;;;;5039629;28;20060;-64
2021/09/09 06:30:44;;;;;;;28.92;17.45;;;15.40;99.90;;;;;;5036841;28;20065;-64
2021/09/09 06:33:10;;;;;;;27.95;19.23;;;15.40;99.90;;;;;;5037586;28;20049;-65
2021/09/09 06:35:37;;;;;;;28.05;19.10;;;15.50;99.90;;;;;;5036389;28;20072;-64
2021/09/09 06:38:03;;;;;;;22.70;17.30;;;15.60;99.90;;;;;;5040505;28;20064;-64
2021/09/09 06:40:29;;;;;;;26.73;17.20;;;15.70;99.90;;;;;;5039419;28;20042;-64
2021/09/09 06:42:55;;;;;;;25.33;17.75;;;15.80;99.90;;;;;;5034270;28;20044;-65
2021/09/09 06:45:21;;;;;;;23.20;17.63;;;15.90;99.90;;;;;;5039784;28;20188;-64
2021/09/09 06:47:46;;;;;;;28.23;18.17;;;16.00;99.90;;;;;;5034041;28;20045;-65
2021/09/09 06:50:13;;;;;;;25.08;18.17;;;16.10;99.90;;;;;;5040247;28;20037;-64
2021/09/09 06:52:39;;;;;;;27.65;19.13;;;16.20;99.90;;;;;;5033286;28;20080;-64
2021/09/09 06:55:06;;;;;;;25.63;16.35;;;16.30;99.90;;;;;;5039451;28;20045;-64
2021/09/09 06:57:31;;;;;;;31.13;16.70;;;16.30;99.90;;;;;;5031707;28;20077;-65
2021/09/09 06:59:57;;;;;;;28.15;17.63;;;16.40;99.90;;;;;;5039728;28;20045;-64
2021/09/09 07:02:23;;;;;;;28.83;17.35;;;16.50;99.90;;;;;;5045984;28;20048;-64
2021/09/09 07:04:48;;;;;;;25.80;18.20;;;16.50;99.90;;;;;;5039033;28;20038;-65
2021/09/09 07:07:15;;;;;;;25.35;17.60;;;16.60;99.90;;;;;;5054591;28;20046;-65
2021/09/09 07:09:40;;;;;;;23.83;17.65;;;16.80;99.90;;;;;;5033978;28;20063;-65
2021/09/09 07:12:06;;;;;;;26.70;17.38;;;16.90;99.90;;;;;;5054372;28;20060;-65
2021/09/09 07:14:32;;;;;;;23.13;16.05;;;17.00;99.90;;;;;;5044398;28;20425;-65
2021/09/09 07:16:58;;;;;;;30.52;17.67;;;17.10;99.90;;;;;;5040484;28;20045;-66
2021/09/09 07:19:23;;;;;;;20.63;16.48;;;17.20;99.90;;;;;;5048679;28;20045;-66
2021/09/09 07:21:52;;;;;;;23.38;17.42;;;17.40;99.90;;;;;;5046028;28;20045;-65
2021/09/09 07:24:18;;;;;;;32.30;17.70;;;17.50;99.90;;;;;;5039946;28;20077;-65
2021/09/09 07:26:45;;;;;;;20.42;16.83;;;17.60;99.90;;;;;;5045820;28;20045;-65
2021/09/09 07:29:14;;;;;;;30.70;16.48;;;17.80;99.90;;;;;;5046219;28;20103;-65
2021/09/09 07:31:44;;;;;;;26.52;16.35;;;17.80;99.90;;;;;;5045675;28;20033;-65
2021/09/09 07:34:11;;;;;;;27.85;17.20;;;18.00;99.90;;;;;;5041917;28;20038;-65
2021/09/09 07:36:37;;;;;;;29.38;17.23;;;18.10;99.90;;;;;;5042339;28;20053;-64
2021/09/09 07:39:04;;;;;;;27.48;17.17;;;18.20;99.90;;;;;;5043572;28;20055;-64
2021/09/09 07:41:30;;;;;;;27.65;17.92;;;18.40;99.90;;;;;;5041319;28;20420;-64
2021/09/09 07:43:56;;;;;;;27.98;17.23;;;18.40;99.90;;;;;;5043675;28;20061;-64
2021/09/09 07:46:22;;;;;;;26.60;16.42;;;18.60;99.90;;;;;;5038963;28;20091;-64
2021/09/09 07:48:47;;;;;;;27.05;16.05;;;18.70;99.90;;;;;;5045837;28;20085;-64
2021/09/09 07:51:16;;;;;;;26.80;17.02;;;18.90;99.90;;;;;;5043802;28;20052;-64
2021/09/09 07:53:41;;;;;;;28.73;17.35;;;19.10;99.90;;;;;;5045088;28;20113;-68
2021/09/09 07:56:07;;;;;;;28.75;17.40;;;19.20;99.90;;;;;;5043184;28;20046;-67
2021/09/09 07:58:33;;;;;;;23.30;16.60;;;19.30;99.90;;;;;;5043343;28;20050;-66
2021/09/09 08:00:58;;;;;;;21.92;17.15;;;19.40;99.90;;;;;;5045097;28;20060;-67
2021/09/09 08:03:24;;;;;;;25.88;17.85;;;19.60;99.90;;;;;;5043601;28;20056;-66
2021/09/09 08:05:50;;;;;;;32.15;16.88;;;19.70;99.90;;;;;;5044830;28;20037;-70
2021/09/09 08:08:15;;;;;;;22.88;17.35;;;19.90;99.90;;;;;;5039282;28;20045;-68
2021/09/09 08:10:41;;;;;;;25.10;16.17;;;20.00;99.90;;;;;;5043288;28;20065;-63
2021/09/09 08:13:07;;;;;;;27.70;16.65;;;20.10;99.90;;;;;;5043670;28;20046;-63
2021/09/09 08:15:32;;;;;;;23.88;15.75;;;20.20;99.90;;;;;;5039000;28;20077;-63
2021/09/09 08:17:58;;;;;;;26.55;17.08;;;20.50;99.90;;;;;;5039770;28;20040;-65
2021/09/09 08:20:24;;;;;;;20.88;15.57;;;20.60;99.90;;;;;;5043527;28;20042;-65
2021/09/09 08:22:49;;;;;;;26.63;14.98;;;20.80;99.90;;;;;;5044783;28;20462;-63
2021/09/09 08:25:15;;;;;;;23.27;16.13;;;20.90;99.90;;;;;;5039175;28;20061;-65
2021/09/09 08:27:41;;;;;;;31.58;16.65;;;21.10;99.90;;;;;;5043569;28;20048;-64
2021/09/09 08:30:07;;;;;;;24.38;15.85;;;21.20;99.90;;;;;;5033769;28;20053;-63
2021/09/09 08:32:33;;;;;;;26.45;15.23;;;21.40;99.90;;;;;;5043479;28;20046;-63
2021/09/09 08:34:59;;;;;;;21.75;15.68;;;21.50;99.90;;;;;;5031364;28;20045;-62
2021/09/09 08:37:25;;;;;;;32.05;15.73;;;21.60;99.90;;;;;;5040603;28;20054;-62
2021/09/09 08:39:51;;;;;;;25.17;14.82;;;21.60;99.90;;;;;;5042500;28;20092;-63
2021/09/09 08:42:19;;;;;;;30.48;15.77;;;21.60;99.90;;;;;;5042347;28;20110;-63
2021/09/09 08:44:45;;;;;;;26.40;14.90;;;21.90;99.90;;;;;;5039142;28;20509;-63
2021/09/09 08:47:11;;;;;;;27.67;15.57;;;22.00;99.90;;;;;;5043701;28;20149;-63
2021/09/09 08:49:37;;;;;;;19.15;14.27;;;22.10;99.90;;;;;;5038303;28;20049;-63
2021/09/09 08:52:04;;;;;;;24.05;14.18;;;22.30;99.90;;;;;;5042015;28;20133;-63
2021/09/09 08:54:31;;;;;;;26.98;15.07;;;22.40;99.90;;;;;;5040822;28;20037;-63
2021/09/09 08:56:58;;;;;;;32.50;15.02;;;22.30;99.90;;;;;;5042923;28;20038;-63
2021/09/09 08:59:25;;;;;;;23.50;14.23;;;22.50;99.90;;;;;;5040280;28;20491;-63
2021/09/09 09:02:09;;;;;;;24.65;15.23;;;22.60;99.90;;;;;;5042505;28;20046;-63
2021/09/09 09:04:36;;;;;;;22.35;14.23;;;22.50;99.90;;;;;;5048412;28;20195;-63
2021/09/09 09:07:05;;;;;;;22.73;15.10;;;22.70;99.90;;;;;;5039390;28;20130;-64
2021/09/09 09:09:36;;;;;;;21.75;12.40;;;22.80;99.90;;;;;;5042569;28;20037;-64
2021/09/09 09:12:10;;;;;;;20.88;13.73;;;23.10;99.90;;;;;;5038946;28;20107;-69
2021/09/09 09:14:36;;;;;;;27.35;13.35;;;23.00;99.90;;;;;;5031282;28;20045;-71
2021/09/09 09:17:05;;;;;;;26.73;13.75;;;23.00;99.90;;;;;;5037240;28;20045;-68
2021/09/09 09:19:41;;;;;;;33.83;14.18;;;23.10;99.90;;;;;;5046243;28;20049;-69
2021/09/09 09:22:14;;;;;;;23.75;14.60;;;23.30;99.90;;;;;;5032691;28;20049;-70
2021/09/09 09:24:48;;;;;;;18.15;13.30;;;23.50;99.90;;;;;;5049251;28;20108;-67
2021/09/09 09:27:16;;;;;;;27.40;13.30;;;23.20;99.90;;;;;;5047617;28;20115;-68
2021/09/09 09:29:57;;;;;;;21.40;12.48;;;23.50;99.90;;;;;;5043933;28;20469;-68
2021/09/09 09:32:23;;;;;;;17.33;12.60;;;23.70;99.90;;;;;;5044435;28;20040;-67
2021/09/09 09:34:48;;;;;;;17.08;11.93;;;23.80;99.90;;;;;;5038917;28;20110;-65
2021/09/09 09:37:21;;;;;;;23.45;12.68;;;24.00;99.90;;;;;;5046554;28;20052;-67
2021/09/09 09:39:47;;;;;;;23.27;13.70;;;24.10;99.90;;;;;;5044737;28;20102;-67
2021/09/09 09:42:13;;;;;;;22.67;13.77;;;24.10;99.90;;;;;;5039172;28;20132;-74
2021/09/09 09:44:47;;;;;;;20.80;12.52;;;23.90;99.90;;;;;;5040389;28;20575;-73
2021/09/09 09:47:15;;;;;;;19.08;12.00;;;24.10;99.90;;;;;;5039467;28;20054;-66
2021/09/09 09:49:43;;;;;;;22.38;13.07;;;24.20;99.90;;;;;;5048896;28;20079;-60
2021/09/09 09:52:17;;;;;;;24.50;12.30;;;24.30;99.90;;;;;;5041555;28;20056;-59
2021/09/09 09:55:03;;;;;;;21.58;13.45;;;24.40;99.90;;;;;;5054719;28;20073;-62
2021/09/09 09:57:29;;;;;;;20.63;12.70;;;24.50;99.90;;;;;;5046776;28;20052;-62
2021/09/09 09:59:56;;;;;;;22.75;13.60;;;24.40;99.90;;;;;;5043490;28;20037;-61
2021/09/09 10:02:23;;;;;;;22.73;13.75;;;24.30;99.90;;;;;;5044805;28;20084;-62
2021/09/09 10:04:51;;;;;;;21.42;11.93;;;24.50;99.90;;;;;;5035505;28;20057;-63
2021/09/09 10:07:17;;;;;;;16.90;11.13;;;24.50;99.90;;;;;;5043886;28;20058;-64
2021/09/09 10:09:43;;;;;;;16.25;11.63;;;24.70;99.90;;;;;;5049852;28;20040;-65
2021/09/09 10:12:11;;;;;;;18.97;12.77;;;24.70;99.90;;;;;;5047660;28;20156;-62
2021/09/09 10:14:49;;;;;;;24.48;11.77;;;24.70;99.90;;;;;;5041029;28;20125;-61
2021/09/09 10:17:19;;;;;;;;;;;24.80;99.90;;;;;;5042637;28;20045;-59
2021/09/09 10:19:44;;;;;;;24.52;10.70;;;24.80;99.90;;;;;;5042605;28;20266;-61
2021/09/09 10:22:21;;;;;;;20.88;11.10;;;24.90;99.90;;;;;;5042310;28;20084;-62
2021/09/09 10:25:02;;;;;;;16.42;10.85;;;25.00;99.90;;;;;;5042201;28;20030;-61
2021/09/09 10:27:33;;;;;;;18.90;9.98;;;25.10;99.90;;;;;;5041979;28;20048;-61
2021/09/09 10:30:03;;;;;;;14.40;11.00;;;25.20;99.90;;;;;;5042258;28;20382;-64
2021/09/09 10:32:29;;;;;;;17.60;10.48;;;25.10;99.90;;;;;;5047569;28;20063;-66
2021/09/09 10:35:17;;;;;;;20.42;10.30;;;25.10;99.50;;;;;;5041500;28;20077;-62
2021/09/09 10:37:44;;;;;;;21.20;11.02;;;25.20;99.90;;;;;;5046850;28;20045;-64
2021/09/09 10:40:31;;;;;;;;;;;25.30;99.90;;;;;;5048552;28;20077;-63
2021/09/09 10:43:11;;;;;;;15.52;9.18;;;25.40;99.90;;;;;;5047343;28;20412;-62
2021/09/09 10:45:40;;;;;;;17.33;9.90;;;25.60;99.90;;;;;;5047849;28;20041;-63
2021/09/09 10:48:08;;;;;;;15.93;9.40;;;25.70;99.90;;;;;;5050358;28;20045;-65
2021/09/09 10:50:36;;;;;;;19.25;9.57;;;25.80;99.60;;;;;;5040195;28;20033;-63
2021/09/09 10:53:09;;;;;;;18.77;8.75;;;25.90;99.50;;;;;;5043047;28;20049;-60
2021/09/09 10:55:47;;;;;;;17.45;8.23;;;25.90;98.50;;;;;;5044229;28;20049;-63
2021/09/09 10:58:18;;;;;;;;;;;25.90;98.00;;;;;;5049792;28;20046;-63
2021/09/09 11:00:53;;;;;;;12.40;9.13;;;25.80;97.40;;;;;;5042656;28;19921;-62
2021/09/09 11:03:44;;;;;;;12.95;8.48;;;26.00;96.10;;;;;;5050609;28;20071;-62
2021/09/09 11:06:12;;;;;;;12.02;8.93;;;26.20;95.60;;;;;;5044306;28;20117;-61
2021/09/09 11:08:39;;;;;;;14.63;7.07;;;26.20;96.00;;;;;;5044937;28;20033;-63
2021/09/09 11:11:06;;;;;;;;;;;26.20;96.10;;;;;;5045849;28;20068;-63
2021/09/09 11:13:33;;;;;;;16.00;9.13;;;26.40;95.80;;;;;;5045587;28;19921;-64
2021/09/09 11:15:59;;;;;;;13.73;7.95;;;26.10;94.90;;;;;;5046375;28;20045;-62
2021/09/09 11:18:29;;;;;;;10.50;7.53;;;26.30;94.80;;;;;;5046473;28;20045;-60
2021/09/09 11:21:06;;;;;;;23.10;8.23;;;26.50;95.50;;;;;;5037935;28;20050;-63
2021/09/09 11:23:33;;;;;;;13.73;7.35;;;26.60;95.00;;;;;;5041263;28;20045;-64
2021/09/09 11:26:13;;;;;;;15.43;8.00;;;26.80;94.80;;;;;;5045540;28;20041;-64
2021/09/09 11:28:39;;;;;;;12.82;7.47;;;27.00;94.40;;;;;;5035417;28;20038;-64
2021/09/09 11:31:17;;;;;;;15.10;7.17;;;27.10;94.10;;;;;;5044513;28;20068;-64
2021/09/09 11:33:47;;;;;;;12.85;7.70;;;27.40;93.60;;;;;;5041026;28;20289;-63
2021/09/09 11:36:13;;;;;;;12.20;7.93;;;27.50;93.00;;;;;;5044700;28;20114;-67
2021/09/09 11:38:39;;;;;;;11.52;7.07;;;27.70;93.10;;;;;;5043652;28;20054;-63
2021/09/09 11:41:16;;;;;;;11.53;7.03;;;28.20;92.60;;;;;;5044754;28;20049;-67
2021/09/09 11:43:50;;;;;;;;;;;28.70;85.70;;;;;;5042982;28;20564;-61
2021/09/09 11:46:28;;;;;;;8.85;6.60;;;29.50;85.40;;;;;;5043737;28;19924;-65
2021/09/09 11:48:55;;;;;;;10.73;7.00;;;30.00;75.10;;;;;;5037398;28;20113;-68
2021/09/09 11:51:40;;;;;;;12.90;6.50;;;30.00;70.30;;;;;;5053106;28;20207;-66
2021/09/09 11:54:25;;;;;;;9.35;6.05;;;30.30;71.40;;;;;;5041414;28;20077;-64
2021/09/09 11:56:54;;;;;;;9.65;6.70;;;30.50;66.20;;;;;;5047243;28;20077;-63
2021/09/09 11:59:20;;;;;;;10.57;6.35;;;30.80;65.70;;;;;;5044442;28;20465;-64
2021/09/09 12:01:56;;;;;;;8.15;6.40;;;30.40;63.90;;;;;;5045428;28;20076;-68
2021/09/09 12:04:23;;;;;;;10.80;6.68;;;30.10;62.80;;;;;;5044159;28;20057;-64
2021/09/09 12:06:49;;;;;;;9.70;6.35;;;30.10;64.20;;;;;;5043920;28;20041;-67
2021/09/09 12:09:26;;;;;;;8.77;6.57;;;30.20;63.80;;;;;;5039693;28;20056;-66
2021/09/09 12:12:06;;;;;;;11.15;6.60;;;30.40;62.50;;;;;;5046382;28;20044;-67
2021/09/09 12:14:33;;;;;;;9.88;5.93;;;30.40;61.50;;;;;;5040934;28;20038;-70
2021/09/09 12:17:20;;;;;;;9.52;6.13;;;30.60;63.00;;;;;;5044024;28;20057;-66
2021/09/09 12:19:49;;;;;;;;;;;31.20;61.90;;;;;;5041428;28;20064;-72
2021/09/09 12:22:15;;;;;;;6.82;6.13;;;31.10;59.30;;;;;;5041670;28;20295;-71
2021/09/09 12:24:40;;;;;;;12.60;6.20;;;31.20;61.70;;;;;;5049050;28;20034;-65
2021/09/09 12:27:06;;;;;;;6.65;5.82;;;31.50;62.00;;;;;;5043220;28;20055;-67
2021/09/09 12:29:37;;;;;;;9.65;5.88;;;31.10;57.40;;;;;;5041672;28;20045;-66
2021/09/09 12:32:27;;;;;;;10.00;5.80;;;31.20;58.10;;;;;;5043988;28;20436;-68